Caribe Rosa — D5MR2 — position and weather

sailwx.info

Track history (hours):
 
Tides and Currents Weather Stations Pressure Air Temp Water Temp Dewpoint Dewpoint Depression Visibility Wind Speed Wind Dir Waves Ship Positions

Caribe Rosa

Last reported at 2017-Nov-24 05:48 UTC. Time now 2017-Nov-24 18:33 UTC.
Position N 29°23' W 094°53'.

Length 118 m; draft 6.2 m.

Type: Ship (hazmat cat A). MMSI: 636017776.

Date/timePositionNaut miles runAvg speedWind from/ knotsBaromVisibWave heightAir tempDewpointWater temp
2017-Nov-24 05:48N 29°23' W 094°53'2 6.9
2017-Nov-24 05:30N 29°22' W 094°51'  
2017-Nov-18 15:22N 19°30' W 095°56'411.8
2017-Nov-18 15:00N 19°25' W 095°56'611.9
2017-Nov-18 14:30N 19°20' W 095°57'612.1
2017-Nov-18 14:00N 19°14' W 095°58'611.4
2017-Nov-18 13:30N 19°11' W 096°03'5 9.6
2017-Nov-18 13:00N 19°13' W 096°08'0 0.5
2017-Nov-18 12:30N 19°13' W 096°08'0 0.0
2017-Nov-18 12:00N 19°13' W 096°08'0 0.0
2017-Nov-18 11:30N 19°13' W 096°08'0 0.0
2017-Nov-18 10:54N 19°13' W 096°08'0 0.0
2017-Nov-18 10:30N 19°13' W 096°08'0 0.0
2017-Nov-18 10:00N 19°13' W 096°08'0 0.0
2017-Nov-18 09:24N 19°13' W 096°08'0 0.0
2017-Nov-18 08:54N 19°13' W 096°08'0 0.0
2017-Nov-18 08:24N 19°13' W 096°08'0 0.0
2017-Nov-18 08:00N 19°13' W 096°08'0 0.0
2017-Nov-18 07:30N 19°13' W 096°08'0 0.0
2017-Nov-18 07:00N 19°13' W 096°08'0 0.0
2017-Nov-18 06:30N 19°13' W 096°08'0 0.0
2017-Nov-18 05:54N 19°13' W 096°08'0 0.0
2017-Nov-18 05:30N 19°13' W 096°08'0 0.0
2017-Nov-18 05:00N 19°13' W 096°08'0 0.0
2017-Nov-18 04:30N 19°13' W 096°08'0 0.0
2017-Nov-18 04:00N 19°13' W 096°08'0 0.0
2017-Nov-18 03:30N 19°13' W 096°08'0 0.0
2017-Nov-18 02:54N 19°13' W 096°08'0 0.0
2017-Nov-18 02:30N 19°13' W 096°08'0 0.1
2017-Nov-18 02:00N 19°13' W 096°08'0 0.1
2017-Nov-18 01:30N 19°13' W 096°08'0 0.0
2017-Nov-18 01:00N 19°13' W 096°08'0 0.0
2017-Nov-18 00:30N 19°13' W 096°08'0 0.0
2017-Nov-18 00:00N 19°13' W 096°08'0 0.0
2017-Nov-17 23:24N 19°13' W 096°08'0 0.0
2017-Nov-17 23:00N 19°13' W 096°08'0 0.0
2017-Nov-17 22:30N 19°13' W 096°08'0 0.0
2017-Nov-17 22:00N 19°13' W 096°08'0 0.0
2017-Nov-17 21:30N 19°13' W 096°08'0 0.0
2017-Nov-17 21:00N 19°13' W 096°08'0 0.0
2017-Nov-17 20:24N 19°13' W 096°08'0 0.0
2017-Nov-17 20:00N 19°13' W 096°08'0 0.0
2017-Nov-17 19:24N 19°13' W 096°08'0 0.0
2017-Nov-17 19:00N 19°13' W 096°08'0 0.0
2017-Nov-17 18:24N 19°13' W 096°08'0 0.0
2017-Nov-17 18:00N 19°13' W 096°08'0 0.0
2017-Nov-17 17:24N 19°13' W 096°08'0 0.0
2017-Nov-17 17:00N 19°13' W 096°08'0 0.0
2017-Nov-17 16:30N 19°13' W 096°08'0 0.0
2017-Nov-17 16:00N 19°13' W 096°08'0 0.0
2017-Nov-17 15:30N 19°13' W 096°08'0 0.0
2017-Nov-17 15:00N 19°13' W 096°08'0 0.0
2017-Nov-17 14:30N 19°13' W 096°08'0 0.0
2017-Nov-17 14:00N 19°13' W 096°08'0 0.0
2017-Nov-17 13:30N 19°13' W 096°08'0 0.0
2017-Nov-17 12:54N 19°13' W 096°08'0 0.0
2017-Nov-17 12:30N 19°13' W 096°08'0 0.0
2017-Nov-17 12:00N 19°13' W 096°08'0 0.0
2017-Nov-17 11:24N 19°13' W 096°08'0 0.0
2017-Nov-17 11:00N 19°13' W 096°08'0 0.0
2017-Nov-17 10:24N 19°13' W 096°08'0 0.0
2017-Nov-17 10:00N 19°13' W 096°08'0 0.0
2017-Nov-17 09:12N 19°13' W 096°08'0 0.0
2017-Nov-17 09:00N 19°13' W 096°08'0 0.0
2017-Nov-17 08:30N 19°13' W 096°08'0 0.0
2017-Nov-17 08:00N 19°13' W 096°08'0 0.0
2017-Nov-17 07:30N 19°13' W 096°08'0 0.0
2017-Nov-17 07:00N 19°13' W 096°08'0 0.0
2017-Nov-17 06:30N 19°13' W 096°08'0 0.0
2017-Nov-17 06:00N 19°13' W 096°08'0 0.0
2017-Nov-17 05:30N 19°13' W 096°08'0 0.0
2017-Nov-17 04:54N 19°13' W 096°08'0 0.0
2017-Nov-17 04:30N 19°13' W 096°08'1 1.8
2017-Nov-17 04:00N 19°12' W 096°08'4 8.5
2017-Nov-17 03:30N 19°11' W 096°03'3 5.5
2017-Nov-17 03:00N 19°09' W 096°02'0 0.6
2017-Nov-17 02:26N 19°09' W 096°01'0 0.0
2017-Nov-17 01:56N 19°09' W 096°01'0 0.0
2017-Nov-17 01:26N 19°09' W 096°01'0 0.0
2017-Nov-17 00:50N 19°09' W 096°01'0 0.0
2017-Nov-17 00:26N 19°09' W 096°01'0 0.0
2017-Nov-17 00:00N 19°09' W 096°01'0 0.0
2017-Nov-16 23:30N 19°09' W 096°01'0 0.0
2017-Nov-16 23:00N 19°09' W 096°01'0 0.0
2017-Nov-16 22:27N 19°09' W 096°01'0 0.0
2017-Nov-16 21:59N 19°09' W 096°01'0 0.0
2017-Nov-16 21:30N 19°09' W 096°01'0 0.0
2017-Nov-16 21:00N 19°09' W 096°01'0 0.0
2017-Nov-16 20:29N 19°09' W 096°01'0 0.0
2017-Nov-16 19:59N 19°09' W 096°01'0 0.0
2017-Nov-16 19:29N 19°09' W 096°01'0 0.0
2017-Nov-16 19:00N 19°09' W 096°01'0 0.5
2017-Nov-16 18:30N 19°09' W 096°01'4 8.3
2017-Nov-16 18:00N 19°13' W 096°00'713.2
2017-Nov-16 17:30N 19°20' W 096°00'713.3
2017-Nov-16 17:00N 19°26' W 095°60'713.4
2017-Nov-16 16:29N 19°33' W 095°59'60011.6
2017-Nov-14 12:42N 29°30' W 094°52'211.8
2017-Nov-14 12:30N 29°32' W 094°53'611.7
2017-Nov-14 12:00N 29°36' W 094°57'611.4
2017-Nov-14 11:30N 29°42' W 094°60'4 8.3
2017-Nov-14 11:00N 29°44' W 095°03'  
Track history (hours):
 
Tides and Currents Weather Stations Pressure Air Temp Water Temp Dewpoint Dewpoint Depression Visibility Wind Speed Wind Dir Waves Ship Positions

Caribe Rosa

Last reported at 2017-Nov-24 05:48 UTC. Time now 2017-Nov-24 18:33 UTC.
Position N 29°23' W 094°53'.

Length 118 m; draft 6.2 m.

Type: Ship (hazmat cat A). MMSI: 636017776.

Date/timePositionNaut miles runAvg speedWind from/ knotsBaromVisibWave heightAir tempDewpointWater temp
2017-Nov-24 05:48N 29°23' W 094°53'2 6.9
2017-Nov-24 05:30N 29°22' W 094°51'  
2017-Nov-18 15:22N 19°30' W 095°56'411.8
2017-Nov-18 15:00N 19°25' W 095°56'611.9
2017-Nov-18 14:30N 19°20' W 095°57'612.1
2017-Nov-18 14:00N 19°14' W 095°58'611.4
2017-Nov-18 13:30N 19°11' W 096°03'5 9.6
2017-Nov-18 13:00N 19°13' W 096°08'0 0.5
2017-Nov-18 12:30N 19°13' W 096°08'0 0.0
2017-Nov-18 12:00N 19°13' W 096°08'0 0.0
2017-Nov-18 11:30N 19°13' W 096°08'0 0.0
2017-Nov-18 10:54N 19°13' W 096°08'0 0.0
2017-Nov-18 10:30N 19°13' W 096°08'0 0.0
2017-Nov-18 10:00N 19°13' W 096°08'0 0.0
2017-Nov-18 09:24N 19°13' W 096°08'0 0.0
2017-Nov-18 08:54N 19°13' W 096°08'0 0.0
2017-Nov-18 08:24N 19°13' W 096°08'0 0.0
2017-Nov-18 08:00N 19°13' W 096°08'0 0.0
2017-Nov-18 07:30N 19°13' W 096°08'0 0.0
2017-Nov-18 07:00N 19°13' W 096°08'0 0.0
2017-Nov-18 06:30N 19°13' W 096°08'0 0.0
2017-Nov-18 05:54N 19°13' W 096°08'0 0.0
2017-Nov-18 05:30N 19°13' W 096°08'0 0.0
2017-Nov-18 05:00N 19°13' W 096°08'0 0.0
2017-Nov-18 04:30N 19°13' W 096°08'0 0.0
2017-Nov-18 04:00N 19°13' W 096°08'0 0.0
2017-Nov-18 03:30N 19°13' W 096°08'0 0.0
2017-Nov-18 02:54N 19°13' W 096°08'0 0.0
2017-Nov-18 02:30N 19°13' W 096°08'0 0.1
2017-Nov-18 02:00N 19°13' W 096°08'0 0.1
2017-Nov-18 01:30N 19°13' W 096°08'0 0.0
2017-Nov-18 01:00N 19°13' W 096°08'0 0.0
2017-Nov-18 00:30N 19°13' W 096°08'0 0.0
2017-Nov-18 00:00N 19°13' W 096°08'0 0.0
2017-Nov-17 23:24N 19°13' W 096°08'0 0.0
2017-Nov-17 23:00N 19°13' W 096°08'0 0.0
2017-Nov-17 22:30N 19°13' W 096°08'0 0.0
2017-Nov-17 22:00N 19°13' W 096°08'0 0.0
2017-Nov-17 21:30N 19°13' W 096°08'0 0.0
2017-Nov-17 21:00N 19°13' W 096°08'0 0.0
2017-Nov-17 20:24N 19°13' W 096°08'0 0.0
2017-Nov-17 20:00N 19°13' W 096°08'0 0.0
2017-Nov-17 19:24N 19°13' W 096°08'0 0.0
2017-Nov-17 19:00N 19°13' W 096°08'0 0.0
2017-Nov-17 18:24N 19°13' W 096°08'0 0.0
2017-Nov-17 18:00N 19°13' W 096°08'0 0.0
2017-Nov-17 17:24N 19°13' W 096°08'0 0.0
2017-Nov-17 17:00N 19°13' W 096°08'0 0.0
2017-Nov-17 16:30N 19°13' W 096°08'0 0.0
2017-Nov-17 16:00N 19°13' W 096°08'0 0.0
2017-Nov-17 15:30N 19°13' W 096°08'0 0.0
2017-Nov-17 15:00N 19°13' W 096°08'0 0.0
2017-Nov-17 14:30N 19°13' W 096°08'0 0.0
2017-Nov-17 14:00N 19°13' W 096°08'0 0.0
2017-Nov-17 13:30N 19°13' W 096°08'0 0.0
2017-Nov-17 12:54N 19°13' W 096°08'0 0.0
2017-Nov-17 12:30N 19°13' W 096°08'0 0.0
2017-Nov-17 12:00N 19°13' W 096°08'0 0.0
2017-Nov-17 11:24N 19°13' W 096°08'0 0.0
2017-Nov-17 11:00N 19°13' W 096°08'0 0.0
2017-Nov-17 10:24N 19°13' W 096°08'0 0.0
2017-Nov-17 10:00N 19°13' W 096°08'0 0.0
2017-Nov-17 09:12N 19°13' W 096°08'0 0.0
2017-Nov-17 09:00N 19°13' W 096°08'0 0.0
2017-Nov-17 08:30N 19°13' W 096°08'0 0.0
2017-Nov-17 08:00N 19°13' W 096°08'0 0.0
2017-Nov-17 07:30N 19°13' W 096°08'0 0.0
2017-Nov-17 07:00N 19°13' W 096°08'0 0.0
2017-Nov-17 06:30N 19°13' W 096°08'0 0.0
2017-Nov-17 06:00N 19°13' W 096°08'0 0.0
2017-Nov-17 05:30N 19°13' W 096°08'0 0.0
2017-Nov-17 04:54N 19°13' W 096°08'0 0.0
2017-Nov-17 04:30N 19°13' W 096°08'1 1.8
2017-Nov-17 04:00N 19°12' W 096°08'4 8.5
2017-Nov-17 03:30N 19°11' W 096°03'3 5.5
2017-Nov-17 03:00N 19°09' W 096°02'0 0.6
2017-Nov-17 02:26N 19°09' W 096°01'0 0.0
2017-Nov-17 01:56N 19°09' W 096°01'0 0.0
2017-Nov-17 01:26N 19°09' W 096°01'0 0.0
2017-Nov-17 00:50N 19°09' W 096°01'0 0.0
2017-Nov-17 00:26N 19°09' W 096°01'0 0.0
2017-Nov-17 00:00N 19°09' W 096°01'0 0.0
2017-Nov-16 23:30N 19°09' W 096°01'0 0.0
2017-Nov-16 23:00N 19°09' W 096°01'0 0.0
2017-Nov-16 22:27N 19°09' W 096°01'0 0.0
2017-Nov-16 21:59N 19°09' W 096°01'0 0.0
2017-Nov-16 21:30N 19°09' W 096°01'0 0.0
2017-Nov-16 21:00N 19°09' W 096°01'0 0.0
2017-Nov-16 20:29N 19°09' W 096°01'0 0.0
2017-Nov-16 19:59N 19°09' W 096°01'0 0.0
2017-Nov-16 19:29N 19°09' W 096°01'0 0.0
2017-Nov-16 19:00N 19°09' W 096°01'0 0.5
2017-Nov-16 18:30N 19°09' W 096°01'4 8.3
2017-Nov-16 18:00N 19°13' W 096°00'713.2
2017-Nov-16 17:30N 19°20' W 096°00'713.3
2017-Nov-16 17:00N 19°26' W 095°60'713.4
2017-Nov-16 16:29N 19°33' W 095°59'60011.6
2017-Nov-14 12:42N 29°30' W 094°52'211.8
2017-Nov-14 12:30N 29°32' W 094°53'611.7
2017-Nov-14 12:00N 29°36' W 094°57'611.4
2017-Nov-14 11:30N 29°42' W 094°60'4 8.3
2017-Nov-14 11:00N 29°44' W 095°03'  

Dump ship's entire track history